createdAt,value
2023-05-24T00:00:20.462Z,948.7
2023-05-24T00:01:22.309Z,948.6
2023-05-24T00:02:24.642Z,948.7
2023-05-24T00:03:27.054Z,948.7
2023-05-24T00:04:29.142Z,948.6
2023-05-24T00:05:31.070Z,948.7
2023-05-24T00:06:33.287Z,948.7
2023-05-24T00:07:35.240Z,948.6
2023-05-24T00:08:37.095Z,948.7
2023-05-24T00:09:38.991Z,948.7
2023-05-24T00:10:41.641Z,948.7
2023-05-24T00:11:44.087Z,948.7
2023-05-24T00:12:46.145Z,948.7
2023-05-24T00:13:48.089Z,948.7
2023-05-24T00:14:49.946Z,948.7
2023-05-24T00:15:51.788Z,948.7
2023-05-24T00:16:53.924Z,948.7
2023-05-24T00:17:56.439Z,948.7
2023-05-24T00:18:58.376Z,948.7
2023-05-24T00:20:00.426Z,948.7
2023-05-24T00:21:02.491Z,948.7
2023-05-24T00:22:04.209Z,948.7
2023-05-24T00:23:06.059Z,948.7
2023-05-24T00:24:07.854Z,948.7
2023-05-24T00:25:09.698Z,948.7
2023-05-24T00:26:11.606Z,948.7
2023-05-24T00:27:13.357Z,948.7
2023-05-24T00:28:15.315Z,948.7
2023-05-24T00:29:17.071Z,948.6
2023-05-24T00:30:18.921Z,948.7
2023-05-24T00:31:21.207Z,948.7
2023-05-24T00:32:23.354Z,948.7
2023-05-24T00:33:25.281Z,948.7
2023-05-24T00:34:27.138Z,948.7
2023-05-24T00:35:29.197Z,948.7
2023-05-24T00:36:30.966Z,948.7
2023-05-24T00:37:32.933Z,948.7
2023-05-24T00:38:34.739Z,948.7
2023-05-24T00:39:36.607Z,948.7
2023-05-24T00:40:38.468Z,948.6
2023-05-24T00:41:40.306Z,948.6
2023-05-24T00:42:42.076Z,948.6
2023-05-24T00:43:44.006Z,948.6
2023-05-24T00:44:45.832Z,948.6
2023-05-24T00:45:47.814Z,948.6
2023-05-24T00:46:49.613Z,948.6
2023-05-24T00:47:51.648Z,948.6
2023-05-24T00:48:53.646Z,948.6
2023-05-24T00:49:55.494Z,948.6
2023-05-24T00:50:57.362Z,948.6
2023-05-24T00:51:59.301Z,948.6
2023-05-24T00:53:03.671Z,948.6
2023-05-24T00:54:05.365Z,948.7
2023-05-24T00:55:07.217Z,948.7
2023-05-24T00:56:09.800Z,948.6
2023-05-24T00:57:11.808Z,948.7
2023-05-24T00:58:13.657Z,948.7
2023-05-24T00:59:15.432Z,948.7
2023-05-24T01:00:17.196Z,948.7
2023-05-24T01:01:19.366Z,948.7
2023-05-24T01:02:22.024Z,948.7
2023-05-24T01:03:24.006Z,948.7
2023-05-24T01:04:26.011Z,948.7
2023-05-24T01:05:27.857Z,948.7
2023-05-24T01:06:29.721Z,948.7
2023-05-24T01:07:31.555Z,948.7
2023-05-24T01:08:33.505Z,948.7
2023-05-24T01:09:35.564Z,948.7
2023-05-24T01:10:37.439Z,948.7
2023-05-24T01:11:39.706Z,948.7
2023-05-24T01:12:41.544Z,948.7
2023-05-24T01:13:43.381Z,948.7
2023-05-24T01:14:48.304Z,948.7
2023-05-24T01:15:50.180Z,948.7
2023-05-24T01:16:52.114Z,948.7
2023-05-24T01:17:54.237Z,948.7
2023-05-24T01:18:56.131Z,948.7
2023-05-24T01:19:58.168Z,948.7
2023-05-24T01:21:00.020Z,948.7
2023-05-24T01:22:01.854Z,948.7
2023-05-24T01:23:03.735Z,948.7
2023-05-24T01:24:05.654Z,948.7
2023-05-24T01:25:08.149Z,948.8
2023-05-24T01:26:09.907Z,948.8
2023-05-24T01:27:11.580Z,948.7
2023-05-24T01:28:13.390Z,948.8
2023-05-24T01:29:15.322Z,948.8
2023-05-24T01:30:17.185Z,948.8
2023-05-24T01:31:19.045Z,948.8
2023-05-24T01:32:21.127Z,948.9
2023-05-24T01:33:23.156Z,948.9
2023-05-24T01:34:24.961Z,948.9
2023-05-24T01:35:26.540Z,948.8
2023-05-24T01:36:28.193Z,948.8
2023-05-24T01:37:29.868Z,948.8
2023-05-24T01:38:31.541Z,948.8
2023-05-24T01:39:33.186Z,948.8
2023-05-24T01:40:34.968Z,948.7
2023-05-24T01:41:36.830Z,948.8
2023-05-24T01:42:38.968Z,948.7
2023-05-24T01:43:40.691Z,948.8
2023-05-24T01:44:42.413Z,948.8
2023-05-24T01:45:44.110Z,948.8
2023-05-24T01:46:45.852Z,948.8
2023-05-24T01:47:47.757Z,948.8
2023-05-24T01:48:49.553Z,948.8
2023-05-24T01:49:51.308Z,948.9
2023-05-24T01:50:53.090Z,948.8
2023-05-24T01:51:54.989Z,948.8
2023-05-24T01:52:56.857Z,948.8
2023-05-24T01:53:58.807Z,948.8
2023-05-24T01:55:00.652Z,948.9
2023-05-24T01:56:02.482Z,948.9
2023-05-24T01:57:04.386Z,948.8
2023-05-24T01:58:06.345Z,948.8
2023-05-24T01:59:08.789Z,948.9
2023-05-24T02:00:10.640Z,948.8
2023-05-24T02:01:12.625Z,948.9
2023-05-24T02:02:14.889Z,948.8
2023-05-24T02:03:17.208Z,948.8
2023-05-24T02:04:19.086Z,948.8
2023-05-24T02:05:20.740Z,948.8
2023-05-24T02:06:22.559Z,948.8
2023-05-24T02:07:24.571Z,948.8
2023-05-24T02:08:26.863Z,948.8
2023-05-24T02:09:28.798Z,948.7
2023-05-24T02:10:30.768Z,948.7
2023-05-24T02:11:32.592Z,948.7
2023-05-24T02:12:34.479Z,948.7
2023-05-24T02:13:36.303Z,948.7
2023-05-24T02:14:37.900Z,948.8
2023-05-24T02:15:39.741Z,948.7
2023-05-24T02:16:41.576Z,948.7
2023-05-24T02:17:43.637Z,948.7
2023-05-24T02:18:45.472Z,948.7
2023-05-24T02:19:47.961Z,948.7
2023-05-24T02:20:50.016Z,948.7
2023-05-24T02:21:51.692Z,948.6
2023-05-24T02:22:53.590Z,948.6
2023-05-24T02:23:55.437Z,948.6
2023-05-24T02:24:57.227Z,948.6
2023-05-24T02:25:59.046Z,948.7
2023-05-24T02:27:00.802Z,948.6
2023-05-24T02:28:02.513Z,948.6
2023-05-24T02:29:04.306Z,948.6
2023-05-24T02:30:06.129Z,948.7
2023-05-24T02:31:08.188Z,948.7
2023-05-24T02:32:10.224Z,948.6
2023-05-24T02:33:12.403Z,948.6
2023-05-24T02:34:14.463Z,948.6
2023-05-24T02:35:16.304Z,948.6
2023-05-24T02:36:18.246Z,948.6
2023-05-24T02:37:20.208Z,948.6
2023-05-24T02:38:22.134Z,948.6
2023-05-24T02:39:24.023Z,948.6
2023-05-24T02:40:25.964Z,948.6
2023-05-24T02:41:27.904Z,948.6
2023-05-24T02:42:30.161Z,948.6
2023-05-24T02:43:31.877Z,948.6
2023-05-24T02:44:33.735Z,948.6
2023-05-24T02:45:35.377Z,948.5
2023-05-24T02:46:37.569Z,948.5
2023-05-24T02:47:39.841Z,948.5
2023-05-24T02:48:44.673Z,948.5
2023-05-24T02:49:46.420Z,948.6
2023-05-24T02:50:48.238Z,948.5
2023-05-24T02:51:50.299Z,948.5
2023-05-24T02:52:52.258Z,948.6
2023-05-24T02:53:54.921Z,948.6
2023-05-24T02:54:57.073Z,948.6
2023-05-24T02:55:58.860Z,948.6
2023-05-24T02:57:00.546Z,948.6
2023-05-24T02:58:02.425Z,948.6
2023-05-24T02:59:04.275Z,948.6
2023-05-24T03:00:06.273Z,948.6
2023-05-24T03:01:08.131Z,948.6
2023-05-24T03:02:10.144Z,948.6
2023-05-24T03:03:12.216Z,948.6
2023-05-24T03:04:14.161Z,948.6
2023-05-24T03:05:15.972Z,948.6
2023-05-24T03:06:17.800Z,948.6
2023-05-24T03:07:19.445Z,948.6
2023-05-24T03:08:21.071Z,948.6
2023-05-24T03:09:22.880Z,948.6
2023-05-24T03:10:24.811Z,948.6
2023-05-24T03:11:26.608Z,948.6
2023-05-24T03:12:28.209Z,948.7
2023-05-24T03:13:29.830Z,948.7
2023-05-24T03:14:31.468Z,948.7
2023-05-24T03:15:33.175Z,948.7
2023-05-24T03:16:35.514Z,948.7
2023-05-24T03:17:37.912Z,948.8
2023-05-24T03:18:39.728Z,948.8
2023-05-24T03:19:41.579Z,948.8
2023-05-24T03:20:44.193Z,948.8
2023-05-24T03:21:46.821Z,948.8
2023-05-24T03:22:48.758Z,948.8
2023-05-24T03:23:50.626Z,948.8
2023-05-24T03:24:52.580Z,948.8
2023-05-24T03:25:54.546Z,948.8
2023-05-24T03:26:56.496Z,948.8
2023-05-24T03:27:58.351Z,948.8
2023-05-24T03:29:00.594Z,948.8
2023-05-24T03:30:02.516Z,948.8
2023-05-24T03:31:04.520Z,948.8
2023-05-24T03:32:06.660Z,948.8
2023-05-24T03:33:08.861Z,948.9
2023-05-24T03:34:10.643Z,948.9
2023-05-24T03:35:12.506Z,948.9
2023-05-24T03:36:14.214Z,948.9
2023-05-24T03:37:16.205Z,948.9
2023-05-24T03:38:17.867Z,949
2023-05-24T03:39:19.996Z,949
2023-05-24T03:40:22.015Z,949
2023-05-24T03:41:23.661Z,949
2023-05-24T03:42:25.459Z,949.1
2023-05-24T03:43:30.158Z,949.1
2023-05-24T03:44:31.891Z,949.1
2023-05-24T03:45:40.576Z,949
2023-05-24T03:46:42.846Z,949.1
2023-05-24T03:47:45.265Z,949
2023-05-24T03:48:47.273Z,949
2023-05-24T03:49:49.266Z,949
2023-05-24T03:50:51.047Z,949
2023-05-24T03:51:52.850Z,948.9
2023-05-24T03:52:54.821Z,949
2023-05-24T03:53:56.745Z,948.9
2023-05-24T03:54:58.524Z,948.9
2023-05-24T03:56:00.133Z,948.9
2023-05-24T03:57:01.792Z,949
2023-05-24T03:58:03.760Z,948.9
2023-05-24T03:59:05.594Z,949
2023-05-24T04:00:08.047Z,949
2023-05-24T04:01:34.382Z,949
2023-05-24T04:02:37.329Z,949
2023-05-24T04:03:39.507Z,949
2023-05-24T04:04:41.997Z,949
2023-05-24T04:05:43.853Z,949
2023-05-24T04:06:45.577Z,949
2023-05-24T04:07:47.435Z,949
2023-05-24T04:08:49.493Z,949
2023-05-24T04:09:51.344Z,949
2023-05-24T04:10:53.178Z,949
2023-05-24T04:11:55.032Z,949
2023-05-24T04:12:56.895Z,949
2023-05-24T04:13:58.939Z,949
2023-05-24T04:15:00.793Z,949.1
2023-05-24T04:16:02.636Z,949
2023-05-24T04:17:05.059Z,949
2023-05-24T04:18:07.557Z,949.1
2023-05-24T04:19:09.527Z,949
2023-05-24T04:20:11.608Z,949
2023-05-24T04:21:13.626Z,949.1
2023-05-24T04:22:15.478Z,949.1
2023-05-24T04:23:17.346Z,949.1
2023-05-24T04:24:19.229Z,949.1
2023-05-24T04:25:21.158Z,949.1
2023-05-24T04:26:22.988Z,949.1
2023-05-24T04:27:24.842Z,949.1
2023-05-24T04:28:26.791Z,949.1
2023-05-24T04:29:28.637Z,949.1
2023-05-24T04:30:30.640Z,949.1
2023-05-24T04:31:32.665Z,949.1
2023-05-24T04:32:34.712Z,949.1
2023-05-24T04:33:36.548Z,949.1
2023-05-24T04:34:38.154Z,949.1
2023-05-24T04:35:40.042Z,949.1
2023-05-24T04:36:41.982Z,949.1
2023-05-24T04:37:43.842Z,949.1
2023-05-24T04:38:45.914Z,949.1
2023-05-24T04:39:48.394Z,949.1
2023-05-24T04:40:50.220Z,949.1
2023-05-24T04:41:52.077Z,949.2
2023-05-24T04:42:53.921Z,949.2
2023-05-24T04:43:55.699Z,949.2
2023-05-24T04:44:57.566Z,949.2
2023-05-24T04:45:59.262Z,949.2
2023-05-24T04:47:01.399Z,949.2
2023-05-24T04:48:03.599Z,949.3
2023-05-24T04:49:05.962Z,949.3
2023-05-24T04:50:08.002Z,949.3
2023-05-24T04:51:10.045Z,949.3
2023-05-24T04:52:12.101Z,949.3
2023-05-24T04:53:14.369Z,949.4
2023-05-24T04:54:16.209Z,949.4
2023-05-24T04:55:18.282Z,949.4
2023-05-24T04:56:20.537Z,949.4
2023-05-24T04:57:22.319Z,949.4
2023-05-24T04:58:23.975Z,949.4
2023-05-24T04:59:25.674Z,949.4
2023-05-24T05:00:27.497Z,949.4
2023-05-24T05:01:29.398Z,949.4
2023-05-24T05:02:31.459Z,949.4
2023-05-24T05:03:33.727Z,949.4
2023-05-24T05:04:35.873Z,949.5
2023-05-24T05:05:37.689Z,949.4
2023-05-24T05:06:39.652Z,949.4
2023-05-24T05:07:41.484Z,949.4
2023-05-24T05:08:43.315Z,949.4
2023-05-24T05:09:45.389Z,949.4
2023-05-24T05:10:47.293Z,949.4
2023-05-24T05:11:48.983Z,949.4
2023-05-24T05:12:50.750Z,949.4
2023-05-24T05:13:52.700Z,949.4
2023-05-24T05:14:54.553Z,949.5
2023-05-24T05:15:56.821Z,949.4
2023-05-24T05:16:58.856Z,949.5
2023-05-24T05:18:01.031Z,949.4
2023-05-24T05:19:03.078Z,949.4
2023-05-24T05:20:05.097Z,949.4
2023-05-24T05:21:07.090Z,949.5
2023-05-24T05:22:09.136Z,949.4
2023-05-24T05:23:10.904Z,949.5
2023-05-24T05:24:12.719Z,949.4
2023-05-24T05:25:14.511Z,949.4
2023-05-24T05:26:16.194Z,949.4
2023-05-24T05:27:17.817Z,949.4
2023-05-24T05:28:19.519Z,949.4
2023-05-24T05:29:25.437Z,949.4
2023-05-24T05:30:27.559Z,949.4
2023-05-24T05:31:29.289Z,949.4
2023-05-24T05:32:31.477Z,949.4
2023-05-24T05:33:33.950Z,949.5
2023-05-24T05:34:35.943Z,949.4
2023-05-24T05:35:38.138Z,949.5
2023-05-24T05:36:39.947Z,949.5
2023-05-24T05:37:41.907Z,949.5
2023-05-24T05:38:43.711Z,949.4
2023-05-24T05:39:45.404Z,949.5
2023-05-24T05:40:47.349Z,949.5
2023-05-24T05:41:49.712Z,949.4
2023-05-24T05:42:51.566Z,949.4
2023-05-24T05:43:53.508Z,949.4
2023-05-24T05:44:55.298Z,949.5
2023-05-24T05:45:57.085Z,949.4
2023-05-24T05:46:58.865Z,949.4
2023-05-24T05:48:00.926Z,949.5
2023-05-24T05:49:02.803Z,949.4
2023-05-24T05:50:04.621Z,949.4
2023-05-24T05:51:06.597Z,949.4
2023-05-24T05:52:08.394Z,949.4
2023-05-24T05:53:10.702Z,949.4
2023-05-24T05:54:12.365Z,949.4
2023-05-24T05:55:14.107Z,949.4
2023-05-24T05:56:15.823Z,949.3
2023-05-24T05:57:17.777Z,949.3
2023-05-24T05:58:19.613Z,949.3
2023-05-24T05:59:21.568Z,949.3
2023-05-24T06:00:23.623Z,949.3
2023-05-24T06:01:25.385Z,949.4
2023-05-24T06:02:27.694Z,949.4
2023-05-24T06:03:30.431Z,949.4
2023-05-24T06:04:32.988Z,949.4
2023-05-24T06:05:35.025Z,949.4
2023-05-24T06:06:36.914Z,949.5
2023-05-24T06:07:38.757Z,949.5
2023-05-24T06:08:40.798Z,949.5
2023-05-24T06:09:43.126Z,949.5
2023-05-24T06:10:45.254Z,949.5
2023-05-24T06:11:47.195Z,949.5
2023-05-24T06:12:49.420Z,949.5
2023-05-24T06:13:51.377Z,949.5
2023-05-24T06:14:53.320Z,949.6
2023-05-24T06:15:55.227Z,949.5
2023-05-24T06:17:00.708Z,949.5
2023-05-24T06:18:02.893Z,949.5
2023-05-24T06:19:07.059Z,949.5
2023-05-24T06:20:09.071Z,949.5
2023-05-24T06:21:10.938Z,949.5
2023-05-24T06:22:12.701Z,949.5
2023-05-24T06:23:14.720Z,949.5
2023-05-24T06:24:16.624Z,949.5
2023-05-24T06:25:18.491Z,949.5
2023-05-24T06:26:20.331Z,949.5
2023-05-24T06:27:22.473Z,949.5
2023-05-24T06:28:24.453Z,949.5
2023-05-24T06:29:26.280Z,949.4
2023-05-24T06:30:28.764Z,949.5
2023-05-24T06:31:31.256Z,949.5
2023-05-24T06:32:33.221Z,949.5
2023-05-24T06:33:42.551Z,949.5
2023-05-24T06:34:54.054Z,949.5
2023-05-24T06:35:55.913Z,949.5
2023-05-24T06:36:57.669Z,949.5
2023-05-24T06:37:59.517Z,949.5
2023-05-24T06:39:01.123Z,949.5
2023-05-24T06:40:03.016Z,949.5
2023-05-24T06:41:04.701Z,949.5
2023-05-24T06:42:06.363Z,949.5
2023-05-24T06:43:08.153Z,949.5
2023-05-24T06:44:10.121Z,949.5
2023-05-24T06:45:12.072Z,949.5
2023-05-24T06:46:13.908Z,949.5
2023-05-24T06:47:16.174Z,949.5
2023-05-24T06:48:18.761Z,949.5
2023-05-24T06:49:20.790Z,949.4
2023-05-24T06:50:22.540Z,949.4
2023-05-24T06:51:24.191Z,949.4
2023-05-24T06:52:25.936Z,949.4
2023-05-24T06:53:28.529Z,949.4
2023-05-24T06:54:31.180Z,949.4
2023-05-24T06:55:33.126Z,949.4
2023-05-24T06:56:35.077Z,949.4
2023-05-24T06:57:36.853Z,949.4
2023-05-24T06:58:38.638Z,949.4
2023-05-24T06:59:40.273Z,949.4
2023-05-24T07:00:42.727Z,949.3
2023-05-24T07:01:45.514Z,949.4
2023-05-24T07:02:47.688Z,949.4
2023-05-24T07:03:49.407Z,949.4
2023-05-24T07:04:51.412Z,949.4
2023-05-24T07:05:53.112Z,949.4
2023-05-24T07:06:54.743Z,949.3
2023-05-24T07:07:56.534Z,949.4
2023-05-24T07:08:59.272Z,949.3
2023-05-24T07:10:01.060Z,949.3
2023-05-24T07:11:03.253Z,949.4
2023-05-24T07:12:09.539Z,949.3
2023-05-24T07:13:11.541Z,949.4
2023-05-24T07:14:13.542Z,949.3
2023-05-24T07:15:15.581Z,949.3
2023-05-24T07:16:17.400Z,949.3
2023-05-24T07:17:19.277Z,949.3
2023-05-24T07:18:21.311Z,949.3
2023-05-24T07:19:23.140Z,949.3
2023-05-24T07:20:25.366Z,949.4
2023-05-24T07:21:27.450Z,949.4
2023-05-24T07:22:29.200Z,949.4
2023-05-24T07:23:31.074Z,949.4
2023-05-24T07:24:33.031Z,949.4
2023-05-24T07:25:34.955Z,949.4
2023-05-24T07:26:36.878Z,949.4
2023-05-24T07:27:38.507Z,949.4
2023-05-24T07:28:40.238Z,949.5
2023-05-24T07:29:42.162Z,949.4
2023-05-24T07:30:44.115Z,949.5
2023-05-24T07:31:46.074Z,949.5
2023-05-24T07:32:48.290Z,949.5
2023-05-24T07:33:50.534Z,949.5
2023-05-24T07:34:52.162Z,949.5
2023-05-24T07:35:53.763Z,949.5
2023-05-24T07:36:55.375Z,949.4
2023-05-24T07:37:57.057Z,949.4
2023-05-24T07:38:58.909Z,949.4
2023-05-24T07:40:01.046Z,949.4
2023-05-24T07:41:03.219Z,949.5
2023-05-24T07:42:05.133Z,949.5
2023-05-24T07:43:06.836Z,949.5
2023-05-24T07:44:08.598Z,949.4
2023-05-24T07:45:10.807Z,949.5
2023-05-24T07:46:13.013Z,949.4
2023-05-24T07:47:14.949Z,949.4
2023-05-24T07:48:17.120Z,949.4
2023-05-24T07:49:19.375Z,949.4
2023-05-24T07:50:21.516Z,949.4
2023-05-24T07:51:23.460Z,949.4
2023-05-24T07:52:25.280Z,949.3
2023-05-24T07:53:27.015Z,949.4
2023-05-24T07:54:28.662Z,949.4
2023-05-24T07:55:30.665Z,949.4
2023-05-24T07:56:32.372Z,949.4
2023-05-24T07:57:34.264Z,949.4
2023-05-24T07:58:36.119Z,949.4
2023-05-24T07:59:37.861Z,949.4
2023-05-24T08:00:39.902Z,949.3
2023-05-24T08:01:41.567Z,949.4
2023-05-24T08:02:43.989Z,949.4
2023-05-24T08:03:46.367Z,949.4
2023-05-24T08:04:48.434Z,949.4
2023-05-24T08:05:50.254Z,949.4
2023-05-24T08:06:52.305Z,949.3
2023-05-24T08:07:54.302Z,949.3
2023-05-24T08:08:56.092Z,949.4
2023-05-24T08:09:57.767Z,949.3
2023-05-24T08:11:00.054Z,949.3
2023-05-24T08:12:01.813Z,949.4
2023-05-24T08:13:03.681Z,949.4
2023-05-24T08:14:05.520Z,949.4
2023-05-24T08:15:07.274Z,949.4
2023-05-24T08:16:09.278Z,949.4
2023-05-24T08:17:10.964Z,949.4
2023-05-24T08:18:12.915Z,949.3
2023-05-24T08:19:14.668Z,949.3
2023-05-24T08:20:16.739Z,949.3
2023-05-24T08:21:18.846Z,949.3
2023-05-24T08:22:20.603Z,949.3
2023-05-24T08:23:22.182Z,949.3
2023-05-24T08:24:23.934Z,949.3
2023-05-24T08:25:25.662Z,949.3
2023-05-24T08:26:27.547Z,949.3
2023-05-24T08:27:29.216Z,949.2
2023-05-24T08:28:31.773Z,949.3
2023-05-24T08:29:34.079Z,949.3
2023-05-24T08:30:35.992Z,949.2
2023-05-24T08:31:38.715Z,949.2
2023-05-24T08:32:41.622Z,949.3
2023-05-24T08:33:43.418Z,949.2
2023-05-24T08:34:45.177Z,949.3
2023-05-24T08:35:47.021Z,949.2
2023-05-24T08:36:48.807Z,949.2
2023-05-24T08:37:50.540Z,949.2
2023-05-24T08:38:52.544Z,949.2
2023-05-24T08:39:54.364Z,949.2
2023-05-24T08:40:56.194Z,949.2
2023-05-24T08:42:10.859Z,949.2
2023-05-24T08:43:13.061Z,949.2
2023-05-24T08:44:15.050Z,949.2
2023-05-24T08:45:16.902Z,949.2
2023-05-24T08:46:18.979Z,949.2
2023-05-24T08:47:20.903Z,949.2
2023-05-24T08:48:23.090Z,949.3
2023-05-24T08:49:25.081Z,949.2
2023-05-24T08:50:26.853Z,949.2
2023-05-24T08:51:28.454Z,949.2
2023-05-24T08:52:30.257Z,949.2
2023-05-24T08:53:32.079Z,949.2
2023-05-24T08:54:33.841Z,949.2
2023-05-24T08:55:35.506Z,949.2
2023-05-24T08:56:37.225Z,949.2
2023-05-24T08:57:39.981Z,949.2
2023-05-24T08:58:41.869Z,949.2
2023-05-24T08:59:44.172Z,949.2
2023-05-24T09:00:45.968Z,949.2
2023-05-24T09:01:48.229Z,949.2
2023-05-24T09:02:50.659Z,949.2
2023-05-24T09:03:52.811Z,949.2
2023-05-24T09:04:54.733Z,949.2
2023-05-24T09:05:56.406Z,949.2
2023-05-24T09:06:58.065Z,949.2
2023-05-24T09:07:59.745Z,949.2
2023-05-24T09:09:01.483Z,949.2
2023-05-24T09:10:03.325Z,949.2
2023-05-24T09:11:04.980Z,949.2
2023-05-24T09:12:06.933Z,949.2
2023-05-24T09:13:09.022Z,949.2
2023-05-24T09:14:10.935Z,949.2
2023-05-24T09:15:12.924Z,949.2
2023-05-24T09:16:15.026Z,949.2
2023-05-24T09:17:16.828Z,949.2
2023-05-24T09:18:18.667Z,949.2
2023-05-24T09:19:20.719Z,949.2
2023-05-24T09:20:22.791Z,949.1
2023-05-24T09:21:24.815Z,949.2
2023-05-24T09:22:26.615Z,949.2
2023-05-24T09:23:28.268Z,949.2
2023-05-24T09:24:30.059Z,949.2
2023-05-24T09:25:31.905Z,949.1
2023-05-24T09:26:33.831Z,949.2
2023-05-24T09:27:35.515Z,949.2
2023-05-24T09:28:37.978Z,949.2
2023-05-24T09:29:39.807Z,949.2
2023-05-24T09:30:43.117Z,949.2
2023-05-24T09:31:45.539Z,949.2
2023-05-24T09:32:47.354Z,949.2
2023-05-24T09:33:49.261Z,949.1
2023-05-24T09:34:50.994Z,949.2
2023-05-24T09:35:52.614Z,949.1
2023-05-24T09:36:54.256Z,949.1
2023-05-24T09:37:55.997Z,949.1
2023-05-24T09:38:57.784Z,949.1
2023-05-24T09:39:59.696Z,949.1
2023-05-24T09:41:01.501Z,949.1
2023-05-24T09:42:03.242Z,949.1
2023-05-24T09:43:05.046Z,949
2023-05-24T09:44:06.764Z,949.1
2023-05-24T09:45:08.397Z,949
2023-05-24T09:46:10.184Z,949
2023-05-24T09:47:12.738Z,949
2023-05-24T09:48:14.953Z,949
2023-05-24T09:49:17.113Z,949.1
2023-05-24T09:50:19.064Z,949
2023-05-24T09:51:21.017Z,949
2023-05-24T09:52:23.185Z,949
2023-05-24T09:53:25.126Z,949
2023-05-24T09:54:27.286Z,949
2023-05-24T09:55:30.563Z,949
2023-05-24T09:56:32.509Z,949
2023-05-24T09:57:34.265Z,949
2023-05-24T09:58:36.219Z,949
2023-05-24T09:59:39.262Z,949
2023-05-24T10:00:42.980Z,949
2023-05-24T10:01:46.195Z,948.9
2023-05-24T10:02:54.578Z,948.9
2023-05-24T10:03:57.005Z,949
2023-05-24T10:04:59.725Z,949
2023-05-24T10:06:01.781Z,949
2023-05-24T10:07:03.499Z,949
2023-05-24T10:08:05.298Z,949
2023-05-24T10:09:07.198Z,949
2023-05-24T10:10:09.087Z,949
2023-05-24T10:11:10.835Z,949
2023-05-24T10:12:12.554Z,949
2023-05-24T10:13:14.423Z,949
2023-05-24T10:14:16.272Z,948.9
2023-05-24T10:15:18.233Z,949
2023-05-24T10:16:20.113Z,948.9
2023-05-24T10:17:22.351Z,948.9
2023-05-24T10:18:24.265Z,948.9
2023-05-24T10:19:26.185Z,948.9
2023-05-24T10:20:28.098Z,948.9
2023-05-24T10:21:30.070Z,948.9
2023-05-24T10:22:31.969Z,948.9
2023-05-24T10:23:33.810Z,948.9
2023-05-24T10:24:35.492Z,948.9
2023-05-24T10:25:37.326Z,948.9
2023-05-24T10:26:39.176Z,948.9
2023-05-24T10:27:41.016Z,948.9
2023-05-24T10:28:42.855Z,948.8
2023-05-24T10:29:44.624Z,948.9
2023-05-24T10:30:47.999Z,948.9
2023-05-24T10:31:50.372Z,948.9
2023-05-24T10:32:52.642Z,948.8
2023-05-24T10:34:08.995Z,948.8
2023-05-24T10:35:11.059Z,948.8
2023-05-24T10:36:13.326Z,948.8
2023-05-24T10:37:15.587Z,948.8
2023-05-24T10:38:17.664Z,948.8
2023-05-24T10:39:19.663Z,948.8
2023-05-24T10:40:21.776Z,948.8
2023-05-24T10:41:23.681Z,948.7
2023-05-24T10:42:25.382Z,948.8
2023-05-24T10:43:27.033Z,948.8
2023-05-24T10:44:28.752Z,948.7
2023-05-24T10:45:30.593Z,948.7
2023-05-24T10:46:32.688Z,948.7
2023-05-24T10:47:39.357Z,948.7
2023-05-24T10:48:41.564Z,948.7
2023-05-24T10:49:43.340Z,948.7
2023-05-24T10:50:45.805Z,948.7
2023-05-24T10:51:47.734Z,948.7
2023-05-24T10:52:49.663Z,948.6
2023-05-24T10:53:51.531Z,948.6
2023-05-24T10:55:05.690Z,948.6
2023-05-24T10:56:07.561Z,948.6
2023-05-24T10:57:09.365Z,948.6
2023-05-24T10:58:11.112Z,948.7
2023-05-24T10:59:12.843Z,948.6
2023-05-24T11:00:35.985Z,948.6
2023-05-24T11:01:38.537Z,948.6
2023-05-24T11:02:41.038Z,948.6
2023-05-24T11:03:42.742Z,948.6
2023-05-24T11:04:44.663Z,948.6
2023-05-24T11:05:47.352Z,948.6
2023-05-24T11:06:49.348Z,948.6
2023-05-24T11:07:51.394Z,948.5
2023-05-24T11:08:53.046Z,948.5
2023-05-24T11:09:55.044Z,948.5
2023-05-24T11:10:56.691Z,948.5
2023-05-24T11:11:58.408Z,948.5
2023-05-24T11:13:00.079Z,948.5
2023-05-24T11:14:02.027Z,948.5
2023-05-24T11:15:03.789Z,948.5
2023-05-24T11:16:06.199Z,948.6
2023-05-24T11:17:08.191Z,948.5
2023-05-24T11:18:10.259Z,948.5
2023-05-24T11:19:12.316Z,948.5
2023-05-24T11:20:14.322Z,948.5
2023-05-24T11:21:16.324Z,948.5
2023-05-24T11:22:18.263Z,948.5
2023-05-24T11:23:19.944Z,948.5
2023-05-24T11:24:21.965Z,948.5
2023-05-24T11:25:24.249Z,948.4
2023-05-24T11:26:26.059Z,948.4
2023-05-24T11:27:27.838Z,948.5
2023-05-24T11:28:29.703Z,948.5
2023-05-24T11:29:31.731Z,948.5
2023-05-24T11:30:33.561Z,948.5
2023-05-24T11:31:44.118Z,948.5
2023-05-24T11:32:46.967Z,948.5
2023-05-24T11:33:48.834Z,948.4
2023-05-24T11:34:50.702Z,948.5
2023-05-24T11:35:52.840Z,948.4
2023-05-24T11:36:54.610Z,948.4
2023-05-24T11:37:56.550Z,948.4
2023-05-24T11:38:58.261Z,948.4
2023-05-24T11:39:59.985Z,948.4
2023-05-24T11:41:01.799Z,948.4
2023-05-24T11:42:03.562Z,948.4
2023-05-24T11:43:05.290Z,948.4
2023-05-24T11:44:06.912Z,948.3
2023-05-24T11:45:08.533Z,948.3
2023-05-24T11:46:10.480Z,948.3
2023-05-24T11:47:12.393Z,948.3
2023-05-24T11:48:14.953Z,948.2
2023-05-24T11:49:17.013Z,948.3
2023-05-24T11:50:18.857Z,948.2
2023-05-24T11:51:20.823Z,948.2
2023-05-24T11:52:22.667Z,948.2
2023-05-24T11:53:24.454Z,948.2
2023-05-24T11:54:26.465Z,948.2
2023-05-24T11:55:28.408Z,948.2
2023-05-24T11:56:34.534Z,948.2
2023-05-24T11:57:36.317Z,948.1
2023-05-24T11:58:38.175Z,948.2
2023-05-24T11:59:39.915Z,948.2
2023-05-24T12:00:42.618Z,948.1
2023-05-24T12:01:44.984Z,948.1
2023-05-24T12:02:47.134Z,948.1
2023-05-24T12:03:49.894Z,948.1
2023-05-24T12:04:52.276Z,948.1
2023-05-24T12:05:54.195Z,948.1
2023-05-24T12:06:56.071Z,948.1
2023-05-24T12:07:57.901Z,948.1
2023-05-24T12:08:59.839Z,948.1
2023-05-24T12:10:01.790Z,948.1
2023-05-24T12:11:03.752Z,948.1
2023-05-24T12:12:05.594Z,948.1
2023-05-24T12:13:07.458Z,948.1
2023-05-24T12:14:09.241Z,948.1
2023-05-24T12:15:11.335Z,948.1
2023-05-24T12:16:13.276Z,948.1
2023-05-24T12:17:15.254Z,948
2023-05-24T12:18:17.237Z,948
2023-05-24T12:19:34.332Z,948
2023-05-24T12:20:37.178Z,948
2023-05-24T12:21:39.243Z,948
2023-05-24T12:22:41.016Z,948
2023-05-24T12:23:42.655Z,948
2023-05-24T12:24:44.584Z,948
2023-05-24T12:25:46.443Z,948
2023-05-24T12:26:48.332Z,947.9
2023-05-24T12:27:54.521Z,948
2023-05-24T12:28:56.562Z,947.9
2023-05-24T12:29:58.561Z,948
2023-05-24T12:31:00.547Z,947.9
2023-05-24T12:32:02.661Z,948
2023-05-24T12:33:04.840Z,947.9
2023-05-24T12:34:06.767Z,947.9
2023-05-24T12:35:08.637Z,947.9
2023-05-24T12:36:10.582Z,947.9
2023-05-24T12:37:14.119Z,947.9
2023-05-24T12:38:16.222Z,947.9
2023-05-24T12:39:18.070Z,947.9
2023-05-24T12:40:20.029Z,947.9
2023-05-24T12:41:21.881Z,947.9
2023-05-24T12:42:23.624Z,947.9
2023-05-24T12:43:25.682Z,947.9
2023-05-24T12:44:27.420Z,947.9
2023-05-24T12:45:29.136Z,947.8
2023-05-24T12:46:31.252Z,947.9
2023-05-24T12:47:33.668Z,947.8
2023-05-24T12:48:35.541Z,947.8
2023-05-24T12:49:37.508Z,947.8
2023-05-24T12:50:40.146Z,947.8
2023-05-24T12:51:42.146Z,947.8
2023-05-24T12:52:43.962Z,947.8
2023-05-24T12:53:45.622Z,947.8
2023-05-24T12:54:47.277Z,947.8
2023-05-24T12:55:48.998Z,947.8
2023-05-24T12:56:56.853Z,947.8
2023-05-24T12:57:59.616Z,947.8
2023-05-24T12:59:01.418Z,947.8
2023-05-24T13:00:03.367Z,947.8
2023-05-24T13:01:05.461Z,947.7
2023-05-24T13:02:07.692Z,947.8
2023-05-24T13:03:09.875Z,947.7
2023-05-24T13:04:11.801Z,947.8
2023-05-24T13:05:13.766Z,947.8
2023-05-24T13:06:15.837Z,947.8
2023-05-24T13:07:17.667Z,947.7
2023-05-24T13:08:20.191Z,947.7
2023-05-24T13:09:22.429Z,947.7
2023-05-24T13:10:24.114Z,947.7
2023-05-24T13:11:25.749Z,947.7
2023-05-24T13:12:27.445Z,947.7
2023-05-24T13:13:29.300Z,947.7
2023-05-24T13:14:31.520Z,947.7
2023-05-24T13:15:33.171Z,947.7
2023-05-24T13:16:35.452Z,947.6
2023-05-24T13:17:37.507Z,947.6
2023-05-24T13:18:39.539Z,947.6
2023-05-24T13:19:41.867Z,947.6
2023-05-24T13:20:44.595Z,947.6
2023-05-24T13:21:47.357Z,947.6
2023-05-24T13:22:49.226Z,947.5
2023-05-24T13:23:51.041Z,947.6
2023-05-24T13:24:53.716Z,947.5
2023-05-24T13:25:55.569Z,947.5